Weather History for KCQB - February, 2014

Change the Weather History Date:

Wednesday, February 12, 2014

  Actual Average (KCUH) Record (KCUH)
Temperature  
Mean Temperature 35 °F -  
Max Temperature 51 °F 48 °F 83 °F (1962)
Min Temperature 19 °F 27 °F -2 °F (1981)
Degree Days  
Heating Degree Days 30    
Moisture  
Dew Point 27 °F    
Average Humidity 78    
Maximum Humidity 100    
Minimum Humidity 47    
Precipitation  
Precipitation 0.00 in - - ()
Sea Level Pressure  
Sea Level Pressure 30.12 in    
Wind  
Wind Speed 4 mph (NW)    
Max Wind Speed 20 mph    
Max Gust Speed 24 mph    
Visibility 10 miles    
Events      
Averages and records for this station are not official NWS values.
T = Trace of Precipitation, MM = Missing Value Source: NWS Daily Summary

Daily Weather History Graph

Daily Weather History Graph

Search for Another Location

Airport or City:

Trip Planner

Search our weather history database for the weather conditions in past years. The results will help you decide how hot, cold, wet, or windy it might be!

Date:

Astronomy

Feb. 12, 2014 Rise Set
Actual Time 7:17 AM CST 6:06 PM CST
Civil Twilight 6:51 AM CST 6:32 PM CST
Nautical Twilight 6:21 AM CST 7:02 PM CST
Astronomical Twilight 5:51 AM CST 7:32 PM CST
Moon 4:22 PM CST (2/12) 5:33 AM CST (2/12)
Length of Visible Light 11h 41m
Length of Day
10h 48m
Waxing Gibbous, 95% of the Moon is Illuminated
Feb 12
Waxing Gibbous
Feb 14
Full
Feb 22
Last Quarter
Mar 1
New
Mar 8
First Quarter

Hourly Weather History & Observations

Time (CST) Temp. Windchill Dew Point Humidity Pressure Visibility Wind Dir Wind Speed Gust Speed Precip Events Conditions
12:15 AM 28.4 °F 24.6 °F 17.6 °F 64% 30.22 in 10.0 mi SE 3.5 mph - N/A   Unknown
12:35 AM 24.8 °F - 19.4 °F 80% 30.20 in 10.0 mi Calm Calm - N/A   Unknown
12:55 AM 24.8 °F - 19.4 °F 80% 30.19 in 10.0 mi Calm Calm - N/A   Unknown
1:15 AM 26.6 °F - 17.6 °F 69% 30.19 in 10.0 mi Calm Calm - N/A   Unknown
1:35 AM 24.8 °F - 17.6 °F 74% 30.18 in 10.0 mi Calm Calm - N/A   Unknown
1:55 AM 26.6 °F - 17.6 °F 69% 30.19 in 10.0 mi Calm Calm - N/A   Unknown
2:15 AM 23.0 °F - 17.6 °F 80% 30.19 in 10.0 mi Calm Calm - N/A   Unknown
2:35 AM 23.0 °F 17.0 °F 17.6 °F 80% 30.20 in 10.0 mi North 4.6 mph - N/A   Unknown
2:55 AM 21.2 °F 14.9 °F 17.6 °F 86% 30.21 in 10.0 mi North 4.6 mph - N/A   Unknown
3:15 AM 21.2 °F 13.6 °F 17.6 °F 86% 30.21 in 10.0 mi North 5.8 mph - N/A   Unknown
3:35 AM 21.2 °F 14.9 °F 19.4 °F 93% 30.20 in 10.0 mi North 4.6 mph - N/A   Unknown
3:55 AM 21.2 °F - 17.6 °F 86% 30.18 in 10.0 mi Calm Calm - N/A   Unknown
4:15 AM 21.2 °F 16.4 °F 17.6 °F 86% 30.17 in 10.0 mi North 3.5 mph - N/A   Unknown
4:35 AM 21.2 °F 16.4 °F 17.6 °F 86% 30.17 in 10.0 mi North 3.5 mph - N/A   Unknown
4:55 AM 21.2 °F 13.6 °F 17.6 °F 86% 30.17 in 10.0 mi North 5.8 mph - N/A   Unknown
5:15 AM 19.4 °F 14.3 °F 17.6 °F 93% 30.17 in 10.0 mi NNW 3.5 mph - N/A   Unknown
5:35 AM 21.2 °F 16.4 °F 19.4 °F 93% 30.17 in 10.0 mi North 3.5 mph - N/A   Unknown
5:55 AM 21.2 °F 16.4 °F 19.4 °F 93% 30.17 in 10.0 mi NNW 3.5 mph - N/A   Unknown
6:15 AM 21.2 °F - 19.4 °F 93% 30.17 in 10.0 mi Calm Calm - N/A   Unknown
6:35 AM 21.2 °F 14.9 °F 19.4 °F 93% 30.18 in 10.0 mi WNW 4.6 mph - N/A   Unknown
6:55 AM 19.4 °F 14.3 °F 17.6 °F 93% 30.17 in 10.0 mi West 3.5 mph - N/A   Unknown
7:15 AM 21.2 °F 14.9 °F 19.4 °F 93% 30.17 in 10.0 mi West 4.6 mph - N/A   Unknown
7:35 AM 21.2 °F - 19.4 °F 93% 30.17 in 7.0 mi Calm Calm - N/A   Unknown
7:55 AM 23.0 °F - 21.2 °F 93% 30.17 in 7.0 mi Calm Calm - N/A   Unknown
8:15 AM 24.8 °F - 21.2 °F 86% 30.18 in 10.0 mi Calm Calm - N/A   Unknown
8:35 AM 26.6 °F - 23.0 °F 86% 30.18 in 10.0 mi Calm Calm - N/A   Unknown
8:55 AM 28.4 °F - 24.8 °F 86% 30.18 in 10.0 mi Calm Calm - N/A   Unknown
9:15 AM 32.0 °F - 24.8 °F 75% 30.18 in 10.0 mi Calm Calm - N/A   Unknown
9:35 AM 32.0 °F 28.7 °F 24.8 °F 75% 30.18 in 10.0 mi West 3.5 mph - N/A   Unknown
9:55 AM 33.8 °F 30.8 °F 26.6 °F 75% 30.18 in 10.0 mi WSW 3.5 mph - N/A   Unknown
10:15 AM 35.6 °F 30.7 °F 28.4 °F 75% 30.18 in 10.0 mi NW 5.8 mph - N/A   Unknown
10:35 AM 37.4 °F 32.8 °F 28.4 °F 70% 30.17 in 10.0 mi WNW 5.8 mph - N/A   Unknown
10:55 AM 39.2 °F 35.0 °F 28.4 °F 65% 30.17 in 10.0 mi West 5.8 mph - N/A   Unknown
11:15 AM 41.0 °F 37.1 °F 28.4 °F 61% 30.16 in 10.0 mi WSW 5.8 mph - N/A   Unknown
11:35 AM 42.8 °F 38.0 °F 30.2 °F 61% 30.15 in 10.0 mi WSW 8.1 mph 16.1 mph N/A   Unknown
11:55 AM 44.6 °F 39.7 °F 30.2 °F 57% 30.14 in 10.0 mi West 9.2 mph - N/A   Unknown
12:15 PM 44.6 °F 38.4 °F 32.0 °F 61% 30.13 in 10.0 mi West 12.7 mph 17.3 mph N/A   Unknown
12:35 PM 46.4 °F 40.7 °F 32.0 °F 57% 30.12 in 10.0 mi West 12.7 mph 17.3 mph N/A   Unknown
12:55 PM 46.4 °F 41.5 °F 32.0 °F 57% 30.10 in 10.0 mi West 10.4 mph - N/A   Unknown
1:15 PM 48.2 °F - 32.0 °F 54% 30.08 in 10.0 mi WNW 6.9 mph 16.1 mph N/A   Unknown
1:35 PM 50.0 °F - 32.0 °F 50% 30.06 in 10.0 mi WNW 5.8 mph 16.1 mph N/A   Unknown
1:55 PM 50.0 °F - 32.0 °F 50% 30.05 in 10.0 mi WNW 6.9 mph - N/A   Unknown
2:15 PM 50.0 °F - 32.0 °F 50% 30.04 in 10.0 mi NW 11.5 mph - N/A   Unknown
2:35 PM 51.8 °F - 32.0 °F 47% 30.04 in 10.0 mi West 10.4 mph - N/A   Unknown
2:55 PM 51.8 °F - 32.0 °F 47% 30.04 in 10.0 mi NW 11.5 mph - N/A   Unknown
3:15 PM 51.8 °F - 32.0 °F 47% 30.04 in 10.0 mi NNW 13.8 mph 17.3 mph N/A   Unknown
3:35 PM 50.0 °F - 32.0 °F 50% 30.04 in 10.0 mi NW 12.7 mph 20.7 mph N/A   Unknown
3:55 PM 50.0 °F - 33.8 °F 54% 30.04 in 10.0 mi NNW 15.0 mph 18.4 mph N/A   Unknown
4:15 PM 46.4 °F 40.7 °F 33.8 °F 62% 30.04 in 10.0 mi NNW 12.7 mph - N/A   Unknown
4:35 PM 46.4 °F 39.2 °F 33.8 °F 62% 30.05 in 10.0 mi North 18.4 mph - N/A   Unknown
4:55 PM 44.6 °F 36.6 °F 33.8 °F 66% 30.05 in 10.0 mi NNW 19.6 mph 24.2 mph N/A   Unknown
5:15 PM 42.8 °F 35.4 °F 33.8 °F 70% 30.06 in 10.0 mi NNW 15.0 mph - N/A   Unknown
5:35 PM 42.8 °F 36.2 °F 33.8 °F 70% 30.06 in 10.0 mi NNW 12.7 mph - N/A   Unknown
5:55 PM 41.0 °F 34.3 °F 33.8 °F 76% 30.07 in 10.0 mi North 11.5 mph 16.1 mph N/A   Unknown
6:15 PM 37.4 °F 31.4 °F 32.0 °F 81% 30.07 in 10.0 mi NNW 8.1 mph - N/A   Unknown
6:35 PM 37.4 °F 32.1 °F 32.0 °F 81% 30.07 in 10.0 mi NNW 6.9 mph - N/A   Unknown
6:55 PM 35.6 °F 32.8 °F 32.0 °F 87% 30.06 in 10.0 mi North 3.5 mph - N/A   Unknown
7:15 PM 35.6 °F 31.7 °F 32.0 °F 87% 30.07 in 10.0 mi WNW 4.6 mph - N/A   Unknown
7:35 PM 33.8 °F - 32.0 °F 93% 30.07 in 10.0 mi Calm Calm - N/A   Unknown
7:55 PM 35.6 °F - 32.0 °F 87% 30.06 in 10.0 mi Calm Calm - N/A   Unknown
8:15 PM 35.6 °F 32.8 °F 32.0 °F 87% 30.07 in 10.0 mi West 3.5 mph - N/A   Unknown
8:35 PM 35.6 °F 32.8 °F 32.0 °F 87% 30.07 in 10.0 mi WNW 3.5 mph - N/A   Unknown
8:55 PM 33.8 °F 30.8 °F 32.0 °F 93% 30.07 in 10.0 mi WNW 3.5 mph - N/A   Unknown
9:15 PM 33.8 °F 30.8 °F 32.0 °F 93% 30.06 in 10.0 mi NW 3.5 mph - N/A   Unknown
9:35 PM 32.0 °F 28.7 °F 32.0 °F 100% 30.05 in 10.0 mi NW 3.5 mph - N/A   Unknown
9:55 PM 33.8 °F 29.6 °F 32.0 °F 93% 30.06 in 10.0 mi NW 4.6 mph - N/A   Unknown
10:15 PM 32.0 °F - 32.0 °F 100% 30.05 in 10.0 mi Calm Calm - N/A   Unknown
10:35 PM 32.0 °F - 32.0 °F 100% 30.04 in 10.0 mi Calm Calm - N/A   Unknown
10:55 PM 32.0 °F - 32.0 °F 100% 30.02 in 10.0 mi Calm Calm - N/A   Unknown
11:15 PM 32.0 °F - 32.0 °F 100% 30.02 in 10.0 mi Calm Calm - N/A   Unknown
11:35 PM 30.2 °F - 30.2 °F 100% 30.01 in 10.0 mi Calm Calm - N/A   Unknown
11:55 PM 30.2 °F - 30.2 °F 100% 30.02 in 10.0 mi Calm Calm - N/A   Unknown